createdAt,value
2023-10-23T00:01:40.795Z,52356.72
2023-10-23T00:04:08.437Z,52354.69
2023-10-23T00:06:35.517Z,52322.13
2023-10-23T00:09:01.988Z,52334.34
2023-10-23T00:11:30.597Z,52364.84
2023-10-23T00:13:57.911Z,52316.03
2023-10-23T00:16:24.574Z,52348.56
2023-10-23T00:18:52.591Z,52336.38
2023-10-23T00:21:19.210Z,52326.19
2023-10-23T00:23:45.760Z,52346.53
2023-10-23T00:26:12.214Z,52307.88
2023-10-23T00:28:39.138Z,52316.03
2023-10-23T00:31:05.650Z,52344.50
2023-10-23T00:33:32.973Z,52305.84
2023-10-23T00:36:00.474Z,52324.16
2023-10-23T00:38:29.784Z,52297.72
2023-10-23T00:40:56.671Z,52322.13
2023-10-23T00:43:25.392Z,52320.09
2023-10-23T00:45:56.322Z,52334.34
2023-10-23T00:48:24.400Z,52336.38
2023-10-23T00:50:52.848Z,52299.75
2023-10-23T00:53:23.728Z,52316.03
2023-10-23T00:55:53.162Z,52307.88
2023-10-23T00:58:20.084Z,52275.31
2023-10-23T01:00:47.882Z,52326.19
2023-10-23T01:03:15.192Z,52305.84
2023-10-23T01:05:41.781Z,52334.34
2023-10-23T01:08:08.892Z,52293.63
2023-10-23T01:10:35.606Z,52285.50
2023-10-23T01:13:08.009Z,52285.50
2023-10-23T01:15:35.659Z,52301.78
2023-10-23T01:18:03.529Z,52322.13
2023-10-23T01:20:31.511Z,52297.72
2023-10-23T01:22:58.989Z,52313.97
2023-10-23T01:25:26.497Z,52307.88
2023-10-23T01:27:53.319Z,52301.78
2023-10-23T01:30:20.192Z,52259.03
2023-10-23T01:32:46.635Z,52275.31
2023-10-23T01:35:13.566Z,52307.88
2023-10-23T01:37:41.439Z,52299.75
2023-10-23T01:42:54.943Z,52309.91
2023-10-23T01:45:21.530Z,52301.78
2023-10-23T01:47:48.751Z,52336.38
2023-10-23T01:50:15.401Z,52316.03
2023-10-23T01:52:43.449Z,52301.78
2023-10-23T01:55:10.109Z,52261.09
2023-10-23T01:57:37.108Z,52303.81
2023-10-23T02:00:07.897Z,52275.31
2023-10-23T02:02:35.146Z,52287.53
2023-10-23T02:05:01.774Z,52309.91
2023-10-23T02:07:28.901Z,52313.97
2023-10-23T02:09:58.148Z,52303.81
2023-10-23T02:12:25.420Z,52346.53
2023-10-23T02:14:54.350Z,52334.34
2023-10-23T02:17:21.385Z,52303.81
2023-10-23T02:19:49.417Z,52338.41
2023-10-23T02:22:17.512Z,52346.53
2023-10-23T02:24:44.500Z,52338.41
2023-10-23T02:27:11.069Z,52307.88
2023-10-23T02:29:37.564Z,52316.03
2023-10-23T02:32:05.145Z,52313.97
2023-10-23T02:34:31.614Z,52293.63
2023-10-23T02:36:58.585Z,52311.94
2023-10-23T02:41:58.949Z,52352.66
2023-10-23T02:44:26.996Z,52342.47
2023-10-23T02:46:54.219Z,52316.03
2023-10-23T02:49:20.808Z,52346.53
2023-10-23T02:51:48.032Z,52356.72
2023-10-23T02:54:15.349Z,52352.66
2023-10-23T02:56:41.806Z,52330.25
2023-10-23T02:59:08.814Z,52318.06
2023-10-23T03:01:35.374Z,52328.22
2023-10-23T03:04:03.022Z,52326.19
2023-10-23T03:06:29.617Z,52334.34
2023-10-23T03:08:56.162Z,52328.22
2023-10-23T03:11:23.425Z,52332.28
2023-10-23T03:13:49.952Z,52338.41
2023-10-23T03:16:17.082Z,52338.41
2023-10-23T03:18:43.848Z,52344.50
2023-10-23T03:21:10.417Z,52346.53
2023-10-23T03:23:37.948Z,52358.75
2023-10-23T03:26:04.502Z,52332.28
2023-10-23T03:28:31.467Z,52348.56
2023-10-23T03:31:01.418Z,52316.03
2023-10-23T03:33:27.957Z,52338.41
2023-10-23T03:35:55.101Z,52336.38
2023-10-23T03:38:21.551Z,52330.25
2023-10-23T03:40:58.444Z,52318.06
2023-10-23T03:43:25.148Z,52348.56
2023-10-23T03:45:51.779Z,52358.75
2023-10-23T03:48:18.898Z,52354.69
2023-10-23T03:50:48.240Z,52373.00
2023-10-23T03:53:15.406Z,52354.69
2023-10-23T03:55:42.222Z,52295.66
2023-10-23T03:58:08.793Z,52340.44
2023-10-23T04:00:35.923Z,52338.41
2023-10-23T04:03:02.461Z,52320.09
2023-10-23T04:05:29.438Z,52334.34
2023-10-23T04:07:55.882Z,52326.19
2023-10-23T04:10:22.455Z,52320.09
2023-10-23T04:12:49.331Z,52338.41
2023-10-23T04:17:52.188Z,52342.47
2023-10-23T04:20:18.778Z,52340.44
2023-10-23T04:22:45.799Z,52322.13
2023-10-23T04:25:12.369Z,52346.53
2023-10-23T04:27:38.851Z,52313.97
2023-10-23T04:30:06.105Z,52356.72
2023-10-23T04:32:32.713Z,52324.16
2023-10-23T04:35:00.243Z,52346.53
2023-10-23T04:40:02.519Z,52336.38
2023-10-23T04:42:29.100Z,52342.47
2023-10-23T04:44:55.650Z,52336.38
2023-10-23T04:47:22.128Z,52322.13
2023-10-23T04:49:49.210Z,52322.13
2023-10-23T04:52:16.342Z,52330.25
2023-10-23T04:54:42.857Z,52295.66
2023-10-23T04:57:09.763Z,52334.34
2023-10-23T04:59:37.005Z,52334.34
2023-10-23T05:02:04.254Z,52301.78
2023-10-23T05:04:32.054Z,52348.56
2023-10-23T05:06:59.242Z,52289.56
2023-10-23T05:09:25.955Z,52297.72
2023-10-23T05:11:52.425Z,52316.03
2023-10-23T05:15:01.337Z,52295.66
2023-10-23T05:20:07.280Z,52281.44
2023-10-23T05:22:33.763Z,52318.06
2023-10-23T05:25:00.384Z,52305.84
2023-10-23T05:27:28.671Z,52320.09
2023-10-23T05:29:56.029Z,52289.56
2023-10-23T05:32:23.372Z,52273.28
2023-10-23T05:34:49.886Z,52281.44
2023-10-23T05:37:16.949Z,52316.03
2023-10-23T05:39:43.423Z,52281.44
2023-10-23T05:42:10.664Z,52263.13
2023-10-23T05:44:37.210Z,52285.50
2023-10-23T05:47:04.689Z,52289.56
2023-10-23T05:49:31.142Z,52275.31
2023-10-23T05:51:57.701Z,52309.91
2023-10-23T05:54:24.828Z,52301.78
2023-10-23T05:56:51.258Z,52336.38
2023-10-23T05:59:17.754Z,52318.06
2023-10-23T06:01:44.242Z,52313.97
2023-10-23T06:04:10.838Z,52316.03
2023-10-23T06:06:37.504Z,52311.94
2023-10-23T06:09:05.500Z,52309.91
2023-10-23T06:11:32.128Z,52322.13
2023-10-23T06:13:59.227Z,52267.19
2023-10-23T06:16:25.781Z,52311.94
2023-10-23T06:21:28.212Z,52316.03
2023-10-23T06:23:54.748Z,52305.84
2023-10-23T06:26:21.816Z,52332.28
2023-10-23T06:28:48.250Z,52326.19
2023-10-23T06:31:15.293Z,52299.75
2023-10-23T06:33:43.884Z,52246.84
2023-10-23T06:36:11.570Z,52295.66
2023-10-23T06:38:38.727Z,52297.72
2023-10-23T06:41:06.691Z,52277.34
2023-10-23T06:43:34.367Z,52269.22
2023-10-23T06:46:02.752Z,52281.44
2023-10-23T06:48:31.544Z,52244.81
2023-10-23T06:50:58.465Z,52236.66
2023-10-23T06:53:25.052Z,52287.53
2023-10-23T06:55:53.633Z,52222.41
2023-10-23T06:58:21.799Z,52220.38
2023-10-23T07:00:49.112Z,52224.47
2023-10-23T07:03:16.288Z,52263.13
2023-10-23T07:05:43.339Z,52269.22
2023-10-23T07:08:10.095Z,52250.91
2023-10-23T07:10:38.149Z,52275.31
2023-10-23T07:13:15.109Z,52198.00
2023-10-23T07:15:48.829Z,52208.19
2023-10-23T07:18:15.290Z,52210.22
2023-10-23T07:20:41.828Z,52191.91
2023-10-23T07:23:08.279Z,52234.63
2023-10-23T07:25:34.748Z,52187.84
2023-10-23T07:28:01.615Z,52212.25
2023-10-23T07:30:28.106Z,52171.56
2023-10-23T07:32:55.344Z,52187.84
2023-10-23T07:35:21.834Z,52210.22
2023-10-23T07:37:48.347Z,52167.50
2023-10-23T07:40:15.050Z,52187.84
2023-10-23T07:42:42.157Z,52126.78
2023-10-23T07:45:09.795Z,52132.91
2023-10-23T07:47:36.462Z,52175.63
2023-10-23T07:50:05.829Z,52118.66
2023-10-23T07:52:33.507Z,52159.34
2023-10-23T07:55:01.643Z,52163.41
2023-10-23T07:57:30.934Z,52149.19
2023-10-23T07:59:57.959Z,52183.75
2023-10-23T08:02:24.550Z,52187.84
2023-10-23T08:04:51.876Z,52147.13
2023-10-23T08:07:18.409Z,52167.50
2023-10-23T08:09:45.663Z,52145.09
2023-10-23T08:12:14.365Z,52139.00
2023-10-23T08:14:41.218Z,52147.13
2023-10-23T08:17:08.413Z,52151.22
2023-10-23T08:19:35.103Z,52143.06
2023-10-23T08:22:02.275Z,52147.13
2023-10-23T08:24:29.145Z,52147.13
2023-10-23T08:26:56.146Z,52132.91
2023-10-23T08:29:23.105Z,52169.53
2023-10-23T08:31:50.368Z,52124.75
2023-10-23T08:34:22.197Z,52132.91
2023-10-23T08:36:49.424Z,52157.31
2023-10-23T08:39:16.548Z,52130.88
2023-10-23T08:41:43.184Z,52114.59
2023-10-23T08:44:10.596Z,52098.31
2023-10-23T08:46:38.344Z,52065.75
2023-10-23T08:49:06.373Z,52106.44
2023-10-23T08:51:33.049Z,52130.88
2023-10-23T08:56:46.214Z,52167.50
2023-10-23T08:59:16.900Z,52100.34
2023-10-23T09:01:43.697Z,52134.94
2023-10-23T09:04:12.293Z,52102.38
2023-10-23T09:06:40.228Z,52102.38
2023-10-23T09:09:07.510Z,52116.63
2023-10-23T09:11:49.976Z,52067.78
2023-10-23T09:14:32.167Z,52082.03
2023-10-23T09:17:01.054Z,52057.63
2023-10-23T09:19:37.583Z,52080.00
2023-10-23T09:22:05.859Z,52128.81
2023-10-23T09:24:32.652Z,52122.72
2023-10-23T09:26:59.275Z,52118.66
2023-10-23T09:29:27.941Z,52147.13
2023-10-23T09:31:57.003Z,52104.41
2023-10-23T09:34:24.311Z,52114.59
2023-10-23T09:36:52.760Z,52090.16
2023-10-23T09:39:21.672Z,52069.81
2023-10-23T09:41:48.570Z,52077.97
2023-10-23T09:44:16.192Z,52077.97
2023-10-23T09:46:46.256Z,52065.75
2023-10-23T09:49:12.948Z,52088.13
2023-10-23T09:51:43.829Z,52118.66
2023-10-23T09:54:20.986Z,52077.97
2023-10-23T09:56:50.103Z,52073.91
2023-10-23T09:59:19.134Z,52053.53
2023-10-23T10:01:51.663Z,52041.34
2023-10-23T10:04:41.209Z,52051.50
2023-10-23T10:07:18.967Z,52063.72
2023-10-23T10:09:45.819Z,52061.69
2023-10-23T10:12:12.241Z,52045.41
2023-10-23T10:14:40.506Z,52043.38
2023-10-23T10:17:08.097Z,52065.75
2023-10-23T10:19:36.808Z,52082.03
2023-10-23T10:22:12.558Z,52039.31
2023-10-23T10:24:40.427Z,52084.06
2023-10-23T10:27:07.866Z,52067.78
2023-10-23T10:29:35.007Z,52090.16
2023-10-23T10:32:10.870Z,52086.09
2023-10-23T10:34:39.967Z,52098.31
2023-10-23T10:37:19.147Z,52088.13
2023-10-23T10:39:54.738Z,52094.25
2023-10-23T10:42:26.688Z,52110.53
2023-10-23T10:45:04.084Z,52102.38
2023-10-23T10:47:39.838Z,52116.63
2023-10-23T10:50:07.600Z,52167.50
2023-10-23T10:52:38.327Z,52122.72
2023-10-23T10:55:06.944Z,52116.63
2023-10-23T11:00:24.689Z,52167.50
2023-10-23T11:02:52.306Z,52126.78
2023-10-23T11:05:19.825Z,52134.94
2023-10-23T11:07:49.236Z,52084.06
2023-10-23T11:10:15.777Z,52088.13
2023-10-23T11:12:42.875Z,52112.56
2023-10-23T11:15:09.817Z,52067.78
2023-10-23T11:17:37.110Z,52080.00
2023-10-23T11:20:12.110Z,52045.41
2023-10-23T11:22:42.464Z,52053.53
2023-10-23T11:25:10.393Z,51986.41
2023-10-23T11:27:39.823Z,52014.88
2023-10-23T11:32:42.065Z,51964.03
2023-10-23T11:35:09.481Z,51959.97
2023-10-23T11:37:40.392Z,51949.78
2023-10-23T11:40:09.674Z,51970.13
2023-10-23T11:45:25.017Z,51941.66
2023-10-23T11:47:56.467Z,51931.47
2023-10-23T11:50:24.592Z,51905.03
2023-10-23T11:52:51.104Z,51945.72
2023-10-23T11:55:19.954Z,51976.22
2023-10-23T11:57:50.179Z,51931.47
2023-10-23T12:00:18.207Z,51929.44
2023-10-23T12:02:47.526Z,51931.47
2023-10-23T12:05:18.103Z,51931.47
2023-10-23T12:07:49.338Z,51900.97
2023-10-23T12:10:18.125Z,51905.03
2023-10-23T12:12:46.452Z,51913.16
2023-10-23T12:15:15.985Z,51945.72
2023-10-23T12:17:43.382Z,51947.75
2023-10-23T12:20:13.381Z,51955.88
2023-10-23T12:22:42.536Z,51931.47
2023-10-23T12:25:10.755Z,51980.31
2023-10-23T12:27:38.304Z,51949.78
2023-10-23T12:30:09.271Z,51968.09
2023-10-23T12:33:14.950Z,51943.69
2023-10-23T12:35:23.683Z,51949.78
2023-10-23T12:37:50.361Z,51927.41
2023-10-23T12:40:17.689Z,51943.69
2023-10-23T12:42:44.296Z,51996.59
2023-10-23T12:45:11.004Z,51982.34
2023-10-23T12:47:38.092Z,51925.38
2023-10-23T12:50:05.385Z,51927.41
2023-10-23T12:52:33.211Z,52004.72
2023-10-23T12:55:00.202Z,52021.00
2023-10-23T12:57:27.448Z,52004.72
2023-10-23T12:59:54.688Z,52006.75
2023-10-23T13:02:21.768Z,52041.34
2023-10-23T13:04:49.874Z,52039.31
2023-10-23T13:07:17.234Z,52071.84
2023-10-23T13:09:43.879Z,52049.47
2023-10-23T13:12:11.014Z,52033.19
2023-10-23T13:14:37.616Z,52014.88
2023-10-23T13:17:04.792Z,52025.06
2023-10-23T13:19:31.475Z,52061.69
2023-10-23T13:21:58.541Z,52010.81
2023-10-23T13:24:25.124Z,51941.66
2023-10-23T13:26:52.190Z,51935.53
2023-10-23T13:29:18.687Z,51896.88
2023-10-23T13:31:50.334Z,51882.66
2023-10-23T13:36:53.399Z,51874.50
2023-10-23T13:39:20.346Z,51931.47
2023-10-23T13:41:47.057Z,51955.88
2023-10-23T13:44:14.060Z,51947.75
2023-10-23T13:46:43.098Z,51970.13
2023-10-23T13:49:10.801Z,51955.88
2023-10-23T13:51:37.716Z,51909.09
2023-10-23T13:54:05.151Z,51935.53
2023-10-23T13:56:31.645Z,51923.34
2023-10-23T13:58:58.767Z,51945.72
2023-10-23T14:01:25.433Z,51943.69
2023-10-23T14:03:53.877Z,51939.63
2023-10-23T14:06:20.651Z,51996.59
2023-10-23T14:09:39.715Z,51959.97
2023-10-23T14:12:00.965Z,51968.09
2023-10-23T14:14:21.142Z,52016.94
2023-10-23T14:16:47.755Z,51998.63
2023-10-23T14:19:22.615Z,51957.91
2023-10-23T14:21:56.484Z,52004.72
2023-10-23T14:24:25.992Z,52006.75
2023-10-23T14:26:52.530Z,52004.72
2023-10-23T14:29:19.814Z,52023.03
2023-10-23T14:31:46.834Z,52023.03
2023-10-23T14:34:14.882Z,52047.44
2023-10-23T14:36:41.510Z,52088.13
2023-10-23T14:39:08.477Z,52031.16
2023-10-23T14:41:35.562Z,52053.53
2023-10-23T14:44:02.341Z,52080.00
2023-10-23T14:46:29.658Z,52065.75
2023-10-23T14:48:56.395Z,52100.34
2023-10-23T14:51:23.946Z,52086.09
2023-10-23T14:53:53.439Z,52082.03
2023-10-23T14:56:21.118Z,52065.75
2023-10-23T15:01:23.618Z,52094.25
2023-10-23T15:03:50.588Z,52090.16
2023-10-23T15:08:53.796Z,52090.16
2023-10-23T15:11:22.780Z,52108.47
2023-10-23T15:13:51.232Z,52124.75
2023-10-23T15:16:18.067Z,52126.78
2023-10-23T15:18:44.992Z,52110.53
2023-10-23T15:21:12.206Z,52118.66
2023-10-23T15:23:39.416Z,52090.16
2023-10-23T15:26:06.080Z,52147.13
2023-10-23T15:28:36.369Z,52141.03
2023-10-23T15:31:06.555Z,52173.59
2023-10-23T15:33:36.017Z,52167.50
2023-10-23T15:36:03.403Z,52173.59
2023-10-23T15:38:31.087Z,52200.03
2023-10-23T15:41:12.216Z,52210.22
2023-10-23T15:43:40.350Z,52208.19
2023-10-23T15:46:13.069Z,52222.41
2023-10-23T15:48:40.646Z,52230.56
2023-10-23T15:51:07.891Z,52234.63
2023-10-23T15:53:34.794Z,52191.91
2023-10-23T15:56:02.277Z,52216.31
2023-10-23T15:58:29.665Z,52248.88
2023-10-23T16:00:58.277Z,52295.66
2023-10-23T16:03:25.125Z,52281.44
2023-10-23T16:05:52.479Z,52273.28
2023-10-23T16:08:19.095Z,52311.94
2023-10-23T16:10:54.001Z,52263.13
2023-10-23T16:13:21.182Z,52309.91
2023-10-23T16:15:48.132Z,52259.03
2023-10-23T16:18:17.443Z,52261.09
2023-10-23T16:20:44.666Z,52261.09
2023-10-23T16:23:12.621Z,52275.31
2023-10-23T16:25:43.240Z,52316.03
2023-10-23T16:28:12.000Z,52283.47
2023-10-23T16:30:39.479Z,52293.63
2023-10-23T16:33:06.088Z,52279.41
2023-10-23T16:35:38.292Z,52295.66
2023-10-23T16:38:04.904Z,52275.31
2023-10-23T16:40:35.060Z,52299.75
2023-10-23T16:43:02.174Z,52291.59
2023-10-23T16:45:30.551Z,52346.53
2023-10-23T16:47:57.278Z,52311.94
2023-10-23T16:50:25.470Z,52320.09
2023-10-23T16:52:52.545Z,52330.25
2023-10-23T16:55:20.111Z,52348.56
2023-10-23T16:57:46.664Z,52303.81
2023-10-23T17:00:15.948Z,52297.72
2023-10-23T17:02:42.551Z,52324.16
2023-10-23T17:05:13.054Z,52322.13
2023-10-23T17:10:28.200Z,52293.63
2023-10-23T17:12:54.737Z,52318.06
2023-10-23T17:15:22.396Z,52342.47
2023-10-23T17:17:49.324Z,52322.13
2023-10-23T17:20:17.335Z,52313.97
2023-10-23T17:22:46.911Z,52311.94
2023-10-23T17:25:13.502Z,52318.06
2023-10-23T17:27:40.569Z,52318.06
2023-10-23T17:30:07.289Z,52287.53
2023-10-23T17:32:34.568Z,52316.03
2023-10-23T17:35:01.214Z,52287.53
2023-10-23T17:37:28.364Z,52293.63
2023-10-23T17:39:54.943Z,52334.34
2023-10-23T17:42:22.107Z,52297.72
2023-10-23T17:44:49.049Z,52350.59
2023-10-23T17:47:15.534Z,52324.16
2023-10-23T17:49:42.925Z,52311.94
2023-10-23T17:52:10.298Z,52334.34
2023-10-23T17:54:38.787Z,52328.22
2023-10-23T17:57:05.496Z,52330.25
2023-10-23T17:59:34.166Z,52338.41
2023-10-23T18:02:01.868Z,52344.50
2023-10-23T18:04:28.890Z,52328.22
2023-10-23T18:06:59.338Z,52316.03
2023-10-23T18:09:26.431Z,52344.50
2023-10-23T18:11:52.861Z,52358.75
2023-10-23T18:14:20.037Z,52324.16
2023-10-23T18:16:46.646Z,52334.34
2023-10-23T18:19:16.172Z,52379.09
2023-10-23T18:21:44.176Z,52320.09
2023-10-23T18:24:10.777Z,52354.69
2023-10-23T18:26:37.709Z,52373.00
2023-10-23T18:29:04.206Z,52348.56
2023-10-23T18:31:32.232Z,52350.59
2023-10-23T18:33:58.755Z,52354.69
2023-10-23T18:36:26.626Z,52328.22
2023-10-23T18:38:53.222Z,52334.34
2023-10-23T18:41:27.930Z,52342.47
2023-10-23T18:43:57.644Z,52368.94
2023-10-23T18:46:24.850Z,52346.53
2023-10-23T18:48:51.379Z,52383.16
2023-10-23T18:51:18.995Z,52348.56
2023-10-23T18:53:45.508Z,52360.78
2023-10-23T18:56:12.419Z,52373.00
2023-10-23T18:58:39.638Z,52344.50
2023-10-23T19:01:09.650Z,52389.28
2023-10-23T19:03:38.985Z,52399.44
2023-10-23T19:06:06.516Z,52389.28
2023-10-23T19:08:33.764Z,52368.94
2023-10-23T19:11:00.382Z,52358.75
2023-10-23T19:13:27.594Z,52342.47
2023-10-23T19:16:01.330Z,52358.75
2023-10-23T19:18:30.997Z,52379.09
2023-10-23T19:21:02.107Z,52401.47
2023-10-23T19:23:29.354Z,52377.06
2023-10-23T19:25:56.674Z,52358.75
2023-10-23T19:28:24.317Z,52413.69
2023-10-23T19:30:52.040Z,52389.28
2023-10-23T19:33:18.989Z,52387.22
2023-10-23T19:35:46.423Z,52383.16
2023-10-23T19:38:13.334Z,52338.41
2023-10-23T19:40:51.213Z,52415.72
2023-10-23T19:43:20.712Z,52356.72
2023-10-23T19:45:48.145Z,52405.56
2023-10-23T19:48:15.158Z,52399.44
2023-10-23T19:50:44.916Z,52405.56
2023-10-23T19:53:14.266Z,52391.31
2023-10-23T19:55:46.746Z,52389.28
2023-10-23T19:58:15.298Z,52450.31
2023-10-23T20:00:41.824Z,52421.81
2023-10-23T20:03:09.009Z,52421.81
2023-10-23T20:05:35.524Z,52403.50
2023-10-23T20:08:02.846Z,52403.50
2023-10-23T20:10:30.104Z,52409.63
2023-10-23T20:12:58.932Z,52389.28
2023-10-23T20:15:30.422Z,52350.59
2023-10-23T20:17:58.030Z,52385.19
2023-10-23T20:20:25.017Z,52381.13
2023-10-23T20:22:52.229Z,52360.78
2023-10-23T20:25:19.350Z,52368.94
2023-10-23T20:27:46.788Z,52360.78
2023-10-23T20:30:13.945Z,52322.13
2023-10-23T20:32:41.079Z,52393.34
2023-10-23T20:35:08.476Z,52381.13
2023-10-23T20:37:35.730Z,52381.13
2023-10-23T20:40:05.080Z,52342.47
2023-10-23T20:42:33.800Z,52352.66
2023-10-23T20:47:42.250Z,52379.09
2023-10-23T20:50:09.883Z,52360.78
2023-10-23T20:52:36.667Z,52403.50
2023-10-23T20:55:06.941Z,52411.66
2023-10-23T20:57:33.438Z,52385.19
2023-10-23T21:00:00.692Z,52375.03
2023-10-23T21:02:27.447Z,52411.66
2023-10-23T21:04:54.562Z,52387.22
2023-10-23T21:07:20.977Z,52366.88
2023-10-23T21:09:48.011Z,52358.75
2023-10-23T21:12:15.121Z,52350.59
2023-10-23T21:14:48.487Z,52350.59
2023-10-23T21:17:16.584Z,52415.72
2023-10-23T21:19:43.452Z,52373.00
2023-10-23T21:22:10.446Z,52389.28
2023-10-23T21:24:36.997Z,52395.38
2023-10-23T21:27:05.411Z,52377.06
2023-10-23T21:29:32.367Z,52405.56
2023-10-23T21:32:01.231Z,52393.34
2023-10-23T21:34:27.937Z,52360.78
2023-10-23T21:36:55.080Z,52336.38
2023-10-23T21:39:22.206Z,52362.81
2023-10-23T21:41:48.790Z,52385.19
2023-10-23T21:44:16.126Z,52334.34
2023-10-23T21:46:42.760Z,52391.31
2023-10-23T21:49:11.823Z,52375.03
2023-10-23T21:51:39.099Z,52358.75
2023-10-23T21:54:06.869Z,52340.44
2023-10-23T21:57:19.644Z,52356.72
2023-10-23T21:59:22.960Z,52377.06
2023-10-23T22:01:53.427Z,52301.78
2023-10-23T22:04:21.369Z,52354.69
2023-10-23T22:06:48.159Z,52354.69
2023-10-23T22:09:15.577Z,52324.16
2023-10-23T22:11:42.471Z,52326.19
2023-10-23T22:14:09.357Z,52342.47
2023-10-23T22:16:36.448Z,52334.34
2023-10-23T22:19:03.638Z,52362.81
2023-10-23T22:21:30.534Z,52330.25
2023-10-23T22:23:57.023Z,52348.56
2023-10-23T22:26:24.157Z,52307.88
2023-10-23T22:28:51.832Z,52324.16
2023-10-23T22:31:18.777Z,52332.28
2023-10-23T22:33:45.279Z,52313.97
2023-10-23T22:36:12.408Z,52338.41
2023-10-23T22:38:38.916Z,52263.13
2023-10-23T22:41:05.495Z,52328.22
2023-10-23T22:43:32.738Z,52287.53
2023-10-23T22:46:03.731Z,52305.84
2023-10-23T22:48:31.987Z,52299.75
2023-10-23T22:50:58.987Z,52313.97
2023-10-23T22:53:26.037Z,52320.09
2023-10-23T22:55:55.396Z,52342.47
2023-10-23T22:58:31.666Z,52275.31
2023-10-23T23:00:59.816Z,52303.81
2023-10-23T23:03:27.835Z,52305.84
2023-10-23T23:06:00.407Z,52287.53
2023-10-23T23:08:31.122Z,52299.75
2023-10-23T23:10:58.083Z,52257.00
2023-10-23T23:13:25.213Z,52263.13
2023-10-23T23:15:52.819Z,52273.28
2023-10-23T23:18:21.476Z,52263.13
2023-10-23T23:20:51.322Z,52267.19
2023-10-23T23:23:17.823Z,52287.53
2023-10-23T23:25:45.112Z,52313.97
2023-10-23T23:28:11.694Z,52299.75
2023-10-23T23:30:38.622Z,52277.34
2023-10-23T23:33:05.108Z,52257.00
2023-10-23T23:35:32.030Z,52265.16
2023-10-23T23:37:58.938Z,52279.41
2023-10-23T23:40:26.164Z,52257.00
2023-10-23T23:42:52.647Z,52250.91
2023-10-23T23:45:19.697Z,52248.88
2023-10-23T23:47:46.219Z,52271.25
2023-10-23T23:50:12.656Z,52279.41
2023-10-23T23:52:39.788Z,52271.25
2023-10-23T23:55:06.645Z,52265.16
2023-10-23T23:57:35.610Z,52289.56
